Rolling Prairie, Indiana
Current Conditions -  °F | °C
As of 2:35 AM on Friday 19 Dec 2014 (Local Time) from KPPO Reporting Station
Overcast Overcast  
Wind Chill: 22°   Ceiling: 1900
Heat Index: 29°   Visibility: 10mi
Dew Point: 24°   Wind: 7mph
Humidity: 82%   Direction: 260°W
Pressure: 30.25"   Gusts: NA
Location:  41.67°N, 86.62°W
Report Text: KPPO 190835Z AUTO 26006KT 10SM OVC019 M02/M04 A3025 RMK AO2 T10181045
Loading
Personal Weather Stations






























Interactive Weather Map New forecast layout! Learn more

10-Day Weather Forecast

Advertisements
Track Severe Weather on mobile